Avignon-Caumont Airport


Codes: LFMV/AVN
Name: Avignon-Caumont Airport
City: Avignon/Caumont
Country: France
Elevation: 124 ft.
Wikipedia:

Photos at Avignon-Caumont Airport


   Photos courtesy of SpottingLog. You can add your own sightings and photos by signing up for a free trial today.



No photos found.

Weather at Avignon-Caumont Airport


Time (UTC)DescriptionTempratureWindCloud coverageVisibilityPressureHumidity
16-Jun-2024 09:00Few Clouds22°C7 mph, NW12%10000m1013hPa54%
16-Jun-2024 12:00Few Clouds24°C7 mph, NW11%10000m1013hPa47%
16-Jun-2024 15:00Clear Sky26°C4 mph, W7%10000m1012hPa40%
16-Jun-2024 18:00Clear Sky23°C9 mph, SW5%10000m1013hPa51%
16-Jun-2024 21:00Few Clouds18°C2 mph, SE14%10000m1015hPa75%
17-Jun-2024 00:00Scattered Clouds17°C2 mph, SE26%10000m1015hPa76%
17-Jun-2024 03:00Clear Sky16°C2 mph, SE7%10000m1014hPa77%
17-Jun-2024 06:00Clear Sky19°C2 mph, SE6%10000m1015hPa64%
17-Jun-2024 09:00Few Clouds25°C7 mph, S11%10000m1015hPa42%
17-Jun-2024 12:00Scattered Clouds28°C13 mph, S33%10000m1015hPa39%
17-Jun-2024 15:00Clear Sky28°C13 mph, S8%10000m1014hPa40%
17-Jun-2024 18:00Scattered Clouds24°C9 mph, S35%10000m1015hPa51%
17-Jun-2024 21:00Overcast Clouds19°C0 mph, S100%10000m1016hPa64%
18-Jun-2024 00:00Overcast Clouds17°C2 mph, NE90%10000m1016hPa71%
18-Jun-2024 03:00Clear Sky16°C2 mph, NE8%10000m1016hPa79%
18-Jun-2024 06:00Clear Sky20°C2 mph, N6%10000m1016hPa68%
18-Jun-2024 09:00Scattered Clouds27°C2 mph, S47%10000m1016hPa42%
18-Jun-2024 12:00Broken Clouds32°C9 mph, SW74%10000m1015hPa27%
18-Jun-2024 15:00Overcast Clouds32°C11 mph, SW100%10000m1014hPa30%
18-Jun-2024 18:00Broken Clouds27°C9 mph, W54%10000m1014hPa43%
18-Jun-2024 21:00Overcast Clouds21°C2 mph, NW100%10000m1015hPa63%
19-Jun-2024 00:00Overcast Clouds20°C2 mph, N100%10000m1016hPa65%
19-Jun-2024 03:00Broken Clouds18°C2 mph, N60%10000m1016hPa67%
19-Jun-2024 06:00Scattered Clouds22°C2 mph, NW30%10000m1016hPa58%
19-Jun-2024 09:00Clear Sky28°C4 mph, NW1%10000m1016hPa40%
19-Jun-2024 12:00Clear Sky33°C11 mph, SW4%10000m1017hPa29%
19-Jun-2024 15:00Broken Clouds35°C2 mph, S83%10000m1014hPa24%
19-Jun-2024 18:00Broken Clouds26°C9 mph, SW64%10000m1016hPa52%
19-Jun-2024 21:00Broken Clouds23°C4 mph, W57%10000m1017hPa64%
20-Jun-2024 00:00Scattered Clouds21°C2 mph, N47%10000m1016hPa69%
20-Jun-2024 03:00Clear Sky20°C7 mph, W5%10000m1017hPa71%
20-Jun-2024 06:00Broken Clouds24°C4 mph, S51%10000m1015hPa57%
20-Jun-2024 09:00Overcast Clouds27°C2 mph, SE100%10000m1013hPa49%
20-Jun-2024 12:00Overcast Clouds38°C16 mph, SE95%10000m1013hPa22%
20-Jun-2024 15:00Overcast Clouds34°C22 mph, SE100%10000m1011hPa26%
20-Jun-2024 18:00Overcast Clouds30°C22 mph, S100%10000m1014hPa35%
20-Jun-2024 21:00Overcast Clouds25°C2 mph, S100%10000m1013hPa56%
21-Jun-2024 00:00Overcast Clouds23°C7 mph, SW99%10000m1016hPa68%
21-Jun-2024 03:00Light Rain22°C7 mph, NE100%10000m1014hPa76%
21-Jun-2024 06:00Overcast Clouds23°C2 mph, S93%10000m1016hPa70%